Terminal Aerodrome Forecast
Issued by NWS

Home | Current Version | Previous Version | Graphics & Text | Print | Product List | Glossary On
Versions: 1 2 3 4 5 6 7 8 9 10 11 12 13
968
FTUS43 KGRB 210520
TAFCWA
TAF
KCWA 210520Z 2106/2206 VRB03KT P6SM SCT200
     FM211000 31008G15KT P6SM SCT040
     FM211500 34012G19KT P6SM SCT050
     FM220100 01006KT P6SM SCT035
      AMD LTD TO CLD VIS AND WIND TIL 211100=

USA.gov is the U.S. government's official web portal to all federal, state and local government web resources and services.